Time;durP1;ratioP1;P1;durP2;ratioP2;P2;SDS_P1;SDS_P2;PMS_P1;PMS_P2;Temp;Humidity;BMP_temperature;BMP_pressure;BME280_temperature;BME280_humidity;BME280_pressure;Samples;Min_cycle;Max_cycle;Signal;HPM_P1;HPM_P2
2022/11/02 00:02:03;;;;;;;10.73;10.17;;;13.50;39.10;;;;;;5068560;28;20837;-49
2022/11/02 00:04:29;;;;;;;11.30;10.50;;;13.50;38.60;;;;;;5083224;28;20221;-51
2022/11/02 00:06:54;;;;;;;11.23;10.63;;;13.70;38.30;;;;;;5067821;28;20174;-48
2022/11/02 00:09:20;;;;;;;10.20;9.60;;;13.80;38.10;;;;;;5049540;28;20627;-50
2022/11/02 00:11:46;;;;;;;10.53;9.90;;;14.00;37.70;;;;;;5049794;28;20171;-49
2022/11/02 00:14:11;;;;;;;10.80;10.00;;;13.90;37.10;;;;;;5067540;28;20182;-49
2022/11/02 00:16:39;;;;;;;10.33;9.70;;;13.90;36.40;;;;;;5067749;28;20201;-48
2022/11/02 00:19:06;;;;;;;11.63;10.90;;;13.90;37.40;;;;;;5083583;28;20179;-50
2022/11/02 00:21:33;;;;;;;10.30;9.80;;;13.90;36.90;;;;;;5069064;28;20449;-49
2022/11/02 00:24:00;;;;;;;10.73;10.13;;;13.90;36.80;;;;;;5065203;28;20464;-53
2022/11/02 00:26:26;;;;;;;9.97;9.47;;;14.00;37.30;;;;;;5069570;28;20412;-52
2022/11/02 00:28:53;;;;;;;10.87;10.17;;;14.10;36.90;;;;;;5063454;28;20416;-52
2022/11/02 00:31:19;;;;;;;9.63;9.00;;;14.20;36.20;;;;;;5065117;28;20417;-49
2022/11/02 00:33:44;;;;;;;9.53;9.00;;;14.40;35.60;;;;;;5065612;28;20421;-51
2022/11/02 00:36:10;;;;;;;10.10;9.60;;;14.50;35.40;;;;;;5064626;28;20186;-53
2022/11/02 00:38:36;;;;;;;10.67;9.20;;;14.50;35.40;;;;;;5065373;28;20273;-51
2022/11/02 00:41:01;;;;;;;9.00;8.67;;;14.60;35.00;;;;;;5065625;28;20232;-50
2022/11/02 00:43:27;;;;;;;9.40;8.90;;;14.60;34.20;;;;;;5063586;28;20724;-51
2022/11/02 00:45:52;;;;;;;9.10;8.70;;;14.50;34.60;;;;;;5082878;28;20197;-51
2022/11/02 00:48:18;;;;;;;9.20;8.87;;;14.20;35.20;;;;;;5066294;28;20634;-48
2022/11/02 00:50:44;;;;;;;9.50;9.00;;;14.00;35.80;;;;;;5065596;28;20690;-52
2022/11/02 00:53:09;;;;;;;9.47;8.73;;;13.80;36.30;;;;;;5082195;28;20179;-49
2022/11/02 00:55:35;;;;;;;9.47;8.93;;;13.90;36.70;;;;;;5064220;28;20187;-50
2022/11/02 00:58:02;;;;;;;9.40;9.00;;;13.90;36.50;;;;;;5063898;28;20662;-49
2022/11/02 01:00:27;;;;;;;9.23;8.53;;;13.80;37.10;;;;;;5064685;28;20269;-50
2022/11/02 01:02:53;;;;;;;9.90;9.40;;;14.00;37.90;;;;;;5046895;28;20516;-51
2022/11/02 01:05:18;;;;;;;9.60;9.03;;;14.10;36.60;;;;;;5066118;28;20182;-49
2022/11/02 01:07:44;;;;;;;9.50;9.00;;;14.30;36.50;;;;;;5082705;28;20182;-57
2022/11/02 01:10:10;;;;;;;9.80;9.20;;;14.40;35.40;;;;;;5065649;28;20186;-58
2022/11/02 01:12:37;;;;;;;8.30;8.00;;;14.50;35.40;;;;;;5063551;28;20189;-59
2022/11/02 01:15:04;;;;;;;9.00;8.60;;;14.60;35.20;;;;;;5063695;28;20420;-56
2022/11/02 01:17:30;;;;;;;9.07;8.67;;;14.60;34.70;;;;;;5064611;28;20504;-58
2022/11/02 01:19:56;;;;;;;9.63;9.10;;;14.60;34.20;;;;;;5064428;28;20519;-57
2022/11/02 01:22:21;;;;;;;10.07;9.47;;;14.60;33.90;;;;;;5066447;28;20182;-58
2022/11/02 01:24:47;;;;;;;10.93;10.13;;;14.30;35.30;;;;;;5063467;28;20211;-58
2022/11/02 01:27:13;;;;;;;9.13;8.73;;;14.00;35.60;;;;;;5063988;28;20457;-56
2022/11/02 01:29:38;;;;;;;10.20;9.70;;;13.90;36.10;;;;;;5063812;28;20179;-56
2022/11/02 01:32:04;;;;;;;9.97;9.47;;;14.00;36.20;;;;;;5064347;28;20638;-57
2022/11/02 01:34:30;;;;;;;10.37;9.73;;;13.80;36.90;;;;;;5064326;28;20235;-57
2022/11/02 01:36:55;;;;;;;9.93;9.33;;;13.80;37.10;;;;;;5063944;28;20182;-56
2022/11/02 01:39:21;;;;;;;9.70;9.27;;;13.80;36.70;;;;;;5064525;28;20310;-57
2022/11/02 01:41:51;;;;;;;9.93;9.30;;;13.70;37.80;;;;;;5063552;28;20631;-57
2022/11/02 01:44:35;;;;;;;10.30;9.50;;;13.80;37.40;;;;;;5061720;28;20213;-57
2022/11/02 01:47:07;;;;;;;10.20;9.80;;;13.60;37.40;;;;;;5048313;28;20792;-55
2022/11/02 01:49:37;;;;;;;10.03;9.63;;;13.60;37.90;;;;;;5064597;28;20429;-55
2022/11/02 01:52:10;;;;;;;11.13;10.37;;;13.40;38.80;;;;;;5082954;28;20436;-57
2022/11/02 01:54:44;;;;;;;10.53;9.93;;;13.30;39.20;;;;;;5063706;28;20444;-57
2022/11/02 01:57:13;;;;;;;10.37;9.67;;;13.30;39.00;;;;;;5063329;28;20766;-57
2022/11/02 01:59:57;;;;;;;10.40;10.00;;;13.30;39.00;;;;;;5064659;28;20451;-57
2022/11/02 02:02:25;;;;;;;11.13;10.53;;;13.30;39.30;;;;;;5064164;28;20421;-57
2022/11/02 02:04:57;;;;;;;12.67;11.87;;;13.20;39.50;;;;;;5062957;28;20456;-56
2022/11/02 02:07:25;;;;;;;10.07;9.57;;;13.10;39.40;;;;;;5063395;28;20435;-57
2022/11/02 02:09:51;;;;;;;10.87;10.37;;;13.10;40.40;;;;;;5061348;28;20853;-57
2022/11/02 02:12:18;;;;;;;10.33;9.93;;;13.10;40.10;;;;;;5062908;28;20507;-57
2022/11/02 02:14:45;;;;;;;10.57;9.87;;;13.10;40.20;;;;;;5062730;28;20424;-57
2022/11/02 02:17:42;;;;;;;10.93;10.53;;;13.20;39.60;;;;;;5061296;28;20437;-57
2022/11/02 02:20:29;;;;;;;11.20;10.50;;;13.30;39.20;;;;;;5063269;28;20447;-57
2022/11/02 02:23:12;;;;;;;11.33;10.83;;;13.20;39.40;;;;;;5062433;28;20904;-57
2022/11/02 02:26:00;;;;;;;10.43;9.93;;;13.20;39.70;;;;;;5081751;28;20408;-57
2022/11/02 02:28:59;;;;;;;10.47;9.90;;;13.00;40.20;;;;;;5063887;28;20409;-57
2022/11/02 02:31:38;;;;;;;10.37;9.97;;;13.00;40.60;;;;;;5061497;28;20547;-57
2022/11/02 02:34:13;;;;;;;11.33;10.77;;;12.90;40.80;;;;;;5062660;28;20458;-58
2022/11/02 02:36:44;;;;;;;12.17;11.33;;;12.80;41.30;;;;;;5062040;28;20415;-56
2022/11/02 02:39:34;;;;;;;10.53;10.03;;;12.80;41.70;;;;;;5062899;28;20413;-53
2022/11/02 02:42:04;;;;;;;10.67;10.17;;;12.90;40.90;;;;;;5062886;28;20442;-49
2022/11/02 02:44:34;;;;;;;12.30;11.60;;;13.00;41.20;;;;;;5060020;28;20460;-47
2022/11/02 02:47:16;;;;;;;10.40;9.80;;;13.10;40.70;;;;;;5063068;28;20448;-49
2022/11/02 02:49:52;;;;;;;10.80;9.93;;;13.20;40.30;;;;;;5061698;28;20420;-49
2022/11/02 02:52:20;;;;;;;10.93;10.33;;;13.30;40.20;;;;;;5079993;28;20474;-52
2022/11/02 02:54:48;;;;;;;9.73;9.33;;;13.30;39.50;;;;;;5063205;28;20847;-49
2022/11/02 02:57:18;;;;;;;10.57;10.00;;;13.20;39.50;;;;;;5062213;28;20420;-49
2022/11/02 02:59:47;;;;;;;9.80;9.20;;;13.20;40.10;;;;;;5064334;28;20845;-51
2022/11/02 03:02:36;;;;;;;10.67;9.97;;;13.20;40.20;;;;;;5062505;28;20428;-49
2022/11/02 03:05:20;;;;;;;11.27;10.50;;;13.20;40.00;;;;;;5061732;28;20517;-50
2022/11/02 03:07:46;;;;;;;9.33;8.93;;;13.10;40.30;;;;;;5060446;28;20465;-49
2022/11/02 03:10:18;;;;;;;10.13;9.63;;;13.00;40.80;;;;;;5062863;28;20413;-48
2022/11/02 03:12:46;;;;;;;9.90;9.40;;;12.90;40.90;;;;;;5061618;28;20182;-49
2022/11/02 03:15:24;;;;;;;10.60;10.10;;;13.00;40.60;;;;;;5063263;28;20451;-57
2022/11/02 03:18:03;;;;;;;10.57;10.10;;;13.10;40.70;;;;;;5062355;28;20973;-55
2022/11/02 03:20:33;;;;;;;10.67;9.93;;;13.20;40.10;;;;;;5062040;28;20523;-56
2022/11/02 03:23:24;;;;;;;11.03;10.33;;;13.20;39.50;;;;;;5061666;28;20409;-56
2022/11/02 03:26:00;;;;;;;10.77;10.27;;;13.20;39.80;;;;;;5062509;28;20448;-57
2022/11/02 03:28:35;;;;;;;10.90;10.40;;;13.20;40.10;;;;;;5062641;28;20946;-57
2022/11/02 03:31:36;;;;;;;10.60;10.10;;;13.10;40.10;;;;;;5061478;28;20504;-58
2022/11/02 03:34:27;;;;;;;11.53;10.80;;;13.20;40.40;;;;;;5015355;28;20900;-57
2022/11/02 03:37:01;;;;;;;11.17;10.67;;;13.20;40.60;;;;;;5061792;28;20420;-56
2022/11/02 03:39:35;;;;;;;10.40;10.00;;;13.20;39.70;;;;;;5062809;28;20897;-55
2022/11/02 03:42:03;;;;;;;11.07;10.57;;;13.30;39.80;;;;;;5060601;28;20432;-56
2022/11/02 03:44:32;;;;;;;10.93;10.43;;;13.20;39.50;;;;;;5060192;28;20457;-56
2022/11/02 03:46:59;;;;;;;10.57;9.83;;;13.10;40.00;;;;;;5062092;28;20421;-57
2022/11/02 03:49:27;;;;;;;10.33;9.80;;;13.00;40.00;;;;;;5061658;28;20440;-56
2022/11/02 03:51:54;;;;;;;11.50;10.80;;;13.00;39.90;;;;;;5061645;28;20417;-55
2022/11/02 03:54:42;;;;;;;11.00;10.30;;;12.80;40.40;;;;;;5080143;28;20416;-56
2022/11/02 03:57:11;;;;;;;9.83;9.40;;;12.80;40.70;;;;;;5065607;28;20419;-56
2022/11/02 03:59:37;;;;;;;11.03;10.33;;;12.80;40.70;;;;;;5090760;28;20519;-56
2022/11/02 04:02:03;;;;;;;11.10;10.30;;;12.80;41.00;;;;;;5092837;28;20539;-57
2022/11/02 04:04:28;;;;;;;10.60;9.90;;;12.80;40.70;;;;;;5073191;28;20610;-56
2022/11/02 04:06:55;;;;;;;11.20;10.70;;;12.80;40.70;;;;;;5075312;28;20724;-56
2022/11/02 04:09:20;;;;;;;11.37;10.67;;;12.90;40.20;;;;;;5079897;28;20590;-57
2022/11/02 04:14:40;;;;;;;11.30;10.60;;;12.80;40.20;;;;;;5098855;28;20597;-48
2022/11/02 04:19:52;;;;;;;11.53;10.60;;;12.80;39.90;;;;;;5099546;28;20520;-51
2022/11/02 04:25:17;;;;;;;10.83;10.33;;;12.90;39.70;;;;;;5099231;28;20749;-50
2022/11/02 04:27:45;;;;;;;10.63;9.90;;;12.90;39.50;;;;;;5081348;28;20821;-52
2022/11/02 04:30:11;;;;;;;11.13;10.30;;;12.90;39.50;;;;;;5080417;28;20415;-51
2022/11/02 04:35:31;;;;;;;10.13;9.73;;;12.80;39.40;;;;;;5100843;28;20423;-57
2022/11/02 04:40:42;;;;;;;11.30;10.80;;;12.80;39.90;;;;;;5091074;28;20996;-55
2022/11/02 04:43:08;;;;;;;11.50;10.30;;;12.90;39.60;;;;;;5086097;28;20455;-56
2022/11/02 04:45:34;;;;;;;10.50;9.93;;;13.10;39.60;;;;;;5088534;28;20268;-49
2022/11/02 04:48:01;;;;;;;10.93;10.33;;;13.10;38.30;;;;;;5084878;28;20227;-49
2022/11/02 04:50:26;;;;;;;11.00;10.50;;;13.10;38.50;;;;;;5084180;28;20490;-49
2022/11/02 04:53:00;;;;;;;9.80;9.30;;;13.10;38.50;;;;;;5083292;28;20539;-49
2022/11/02 04:55:26;;;;;;;10.77;9.77;;;13.10;39.00;;;;;;5082501;28;20262;-52
2022/11/02 04:57:52;;;;;;;11.07;10.50;;;13.30;38.80;;;;;;5103131;28;20419;-49
2022/11/02 05:00:19;;;;;;;10.37;9.97;;;13.30;38.20;;;;;;5084419;28;20420;-56
2022/11/02 05:02:46;;;;;;;10.47;10.07;;;13.20;38.80;;;;;;5084738;28;20420;-57
2022/11/02 05:05:12;;;;;;;10.67;10.17;;;13.10;38.80;;;;;;5084043;28;20970;-55
2022/11/02 05:07:38;;;;;;;17.53;16.17;;;13.10;38.80;;;;;;5101892;27;20508;-57
2022/11/02 05:10:04;;;;;;;11.50;11.00;;;13.10;39.10;;;;;;5084714;27;20186;-55
2022/11/02 05:12:30;;;;;;;11.73;11.10;;;13.00;39.10;;;;;;5085935;28;20170;-56
2022/11/02 05:14:55;;;;;;;11.10;10.47;;;13.00;39.10;;;;;;5085761;28;20968;-55
2022/11/02 05:17:21;;;;;;;10.80;10.30;;;12.90;38.90;;;;;;5083028;28;20182;-56
2022/11/02 05:19:47;;;;;;;12.03;11.33;;;12.90;39.20;;;;;;5082661;28;20178;-56
2022/11/02 05:22:12;;;;;;;10.23;9.73;;;13.10;39.00;;;;;;5085804;28;20182;-59
2022/11/02 05:24:38;;;;;;;10.90;10.30;;;13.20;38.60;;;;;;5087726;28;20194;-59
2022/11/02 05:27:03;;;;;;;11.77;11.00;;;13.40;38.30;;;;;;5087993;28;20671;-60
2022/11/02 05:29:29;;;;;;;11.37;10.83;;;13.50;37.70;;;;;;5086365;28;20208;-60
2022/11/02 05:31:56;;;;;;;11.67;10.10;;;13.50;37.00;;;;;;5083921;28;20860;-60
2022/11/02 05:34:22;;;;;;;11.50;10.80;;;13.50;37.20;;;;;;5088223;28;20174;-58
2022/11/02 05:36:48;;;;;;;10.20;9.60;;;13.60;35.90;;;;;;5086978;28;20416;-58
2022/11/02 05:39:14;;;;;;;10.97;10.37;;;13.50;36.70;;;;;;5105829;28;20182;-57
2022/11/02 05:41:39;;;;;;;10.60;10.07;;;13.20;37.40;;;;;;5104014;28;20431;-55
2022/11/02 05:44:05;;;;;;;11.30;10.70;;;13.00;38.10;;;;;;5081646;28;20194;-53
2022/11/02 05:46:31;;;;;;;11.27;10.67;;;13.00;38.30;;;;;;5085431;28;20223;-54
2022/11/02 05:48:56;;;;;;;12.10;11.50;;;12.90;38.60;;;;;;5088007;28;20185;-50
2022/11/02 05:51:22;;;;;;;10.97;10.20;;;12.90;38.70;;;;;;5085959;28;20641;-61
2022/11/02 05:53:47;;;;;;;11.83;11.13;;;12.80;38.50;;;;;;5082607;28;20182;-59
2022/11/02 05:56:13;;;;;;;10.43;9.83;;;12.80;38.50;;;;;;5084164;28;20182;-61
2022/11/02 05:58:39;;;;;;;11.00;10.30;;;12.70;38.80;;;;;;5082563;28;20193;-59
2022/11/02 06:01:06;;;;;;;11.03;10.33;;;12.70;38.70;;;;;;5082408;28;20557;-61
2022/11/02 06:03:33;;;;;;;12.13;11.33;;;12.70;38.60;;;;;;5084666;28;20462;-57
2022/11/02 06:06:00;;;;;;;11.83;11.13;;;12.70;39.00;;;;;;5077035;28;20419;-56
2022/11/02 06:08:26;;;;;;;11.00;10.30;;;12.70;39.10;;;;;;5084356;28;20430;-58
2022/11/02 06:10:52;;;;;;;11.77;11.17;;;12.70;38.70;;;;;;5085026;28;20416;-59
2022/11/02 06:13:18;;;;;;;11.57;10.97;;;12.60;39.00;;;;;;5090810;28;20416;-59
2022/11/02 06:15:44;;;;;;;12.33;11.20;;;12.70;39.30;;;;;;5085443;28;20431;-60
2022/11/02 06:18:10;;;;;;;10.77;10.07;;;12.70;39.10;;;;;;5083053;28;20473;-61
2022/11/02 06:20:35;;;;;;;11.27;10.77;;;12.70;38.70;;;;;;5082798;28;20420;-60
2022/11/02 06:23:01;;;;;;;11.10;10.40;;;12.70;38.90;;;;;;5084310;28;20201;-60
2022/11/02 06:25:27;;;;;;;10.70;10.00;;;12.80;39.20;;;;;;5082379;28;20217;-60
2022/11/02 06:27:55;;;;;;;11.30;10.70;;;12.80;38.70;;;;;;5088705;28;20220;-60
2022/11/02 06:30:22;;;;;;;11.37;10.67;;;12.90;39.00;;;;;;5082373;28;20219;-60
2022/11/02 06:32:49;;;;;;;13.17;12.20;;;12.90;38.90;;;;;;5084996;28;20491;-60
2022/11/02 06:35:16;;;;;;;12.00;11.07;;;12.90;38.40;;;;;;5074270;28;20424;-60
2022/11/02 06:37:43;;;;;;;11.20;10.53;;;12.90;38.60;;;;;;5066500;28;20421;-60
2022/11/02 06:40:10;;;;;;;11.40;10.87;;;13.00;38.60;;;;;;5066944;28;20459;-60
2022/11/02 06:42:36;;;;;;;11.73;11.03;;;13.00;38.50;;;;;;5065202;28;20937;-60
2022/11/02 06:45:02;;;;;;;11.57;10.87;;;13.10;38.40;;;;;;5066094;28;20460;-60
2022/11/02 06:47:33;;;;;;;12.53;11.23;;;13.10;38.40;;;;;;5065856;28;20804;-60
2022/11/02 06:49:59;;;;;;;11.63;10.90;;;13.10;38.50;;;;;;5066456;28;20417;-59
2022/11/02 06:52:29;;;;;;;11.00;10.40;;;13.00;38.60;;;;;;5074932;28;20916;-61
2022/11/02 06:54:55;;;;;;;11.27;10.27;;;13.00;38.90;;;;;;5102762;28;20499;-61
2022/11/02 06:57:21;;;;;;;10.53;10.03;;;13.10;38.60;;;;;;5084664;28;20494;-61
2022/11/02 06:59:47;;;;;;;12.53;11.53;;;13.20;38.40;;;;;;5076378;28;20428;-58
2022/11/02 07:02:13;;;;;;;11.73;10.97;;;13.20;38.70;;;;;;5077183;28;20924;-57
2022/11/02 07:04:38;;;;;;;11.03;10.13;;;13.30;38.20;;;;;;5078947;28;20487;-55
2022/11/02 07:07:04;;;;;;;11.47;10.77;;;13.30;38.70;;;;;;5087824;28;20563;-56
2022/11/02 07:09:29;;;;;;;10.23;9.60;;;13.40;39.60;;;;;;5083770;28;20516;-60
2022/11/02 07:11:55;;;;;;;11.07;10.10;;;13.40;39.40;;;;;;5087842;28;20186;-60
2022/11/02 07:14:21;;;;;;;10.07;9.47;;;13.50;39.50;;;;;;5084888;28;20569;-60
2022/11/02 07:16:46;;;;;;;10.47;9.73;;;13.50;39.10;;;;;;5082742;28;20213;-53
2022/11/02 07:19:12;;;;;;;10.93;9.93;;;13.50;38.80;;;;;;5078072;28;20185;-54
2022/11/02 07:21:37;;;;;;;11.63;10.83;;;13.60;39.10;;;;;;5074615;28;20281;-53
2022/11/02 07:24:03;;;;;;;10.23;9.53;;;13.60;39.10;;;;;;5079438;28;20244;-54
2022/11/02 07:26:29;;;;;;;11.20;10.30;;;13.70;38.80;;;;;;5081964;28;20178;-54
2022/11/02 07:28:55;;;;;;;10.90;10.00;;;13.90;38.10;;;;;;5078786;28;20445;-54
2022/11/02 07:31:20;;;;;;;11.80;10.70;;;14.10;38.00;;;;;;5083210;28;20199;-52
2022/11/02 07:33:46;;;;;;;11.40;10.30;;;14.20;37.30;;;;;;5069792;28;20197;-51
2022/11/02 07:36:12;;;;;;;10.90;10.20;;;14.30;37.50;;;;;;5072556;28;20638;-50
2022/11/02 07:38:37;;;;;;;11.63;10.83;;;14.40;36.30;;;;;;5066452;28;20417;-53
2022/11/02 07:41:03;;;;;;;11.17;10.63;;;14.30;35.30;;;;;;5063725;28;20201;-53
2022/11/02 07:43:30;;;;;;;11.30;10.50;;;14.10;36.10;;;;;;5065146;28;20225;-49
2022/11/02 07:45:55;;;;;;;15.00;13.97;;;14.10;36.80;;;;;;5049876;28;20305;-49
2022/11/02 07:48:21;;;;;;;12.03;11.27;;;14.00;36.80;;;;;;5066098;28;20914;-53
2022/11/02 07:50:47;;;;;;;11.30;10.70;;;13.90;37.20;;;;;;5065959;28;20181;-54
2022/11/02 07:53:12;;;;;;;12.63;11.40;;;13.90;36.60;;;;;;5066761;28;20179;-54
2022/11/02 07:55:39;;;;;;;10.63;9.80;;;13.90;37.40;;;;;;5066058;28;20197;-53
2022/11/02 07:58:08;;;;;;;11.00;10.40;;;14.00;37.00;;;;;;5069913;28;20600;-53
2022/11/02 08:00:36;;;;;;;11.47;10.70;;;13.90;37.20;;;;;;5067042;28;20412;-52
2022/11/02 08:03:03;;;;;;;12.30;11.53;;;13.90;37.40;;;;;;5070773;28;20846;-50
2022/11/02 08:05:32;;;;;;;11.90;11.13;;;14.00;36.80;;;;;;5096781;28;20428;-49
2022/11/02 08:08:03;;;;;;;11.37;10.67;;;14.00;36.50;;;;;;5095797;28;20778;-52
2022/11/02 08:10:30;;;;;;;11.70;10.80;;;14.00;36.80;;;;;;5096381;28;20427;-50
2022/11/02 08:12:56;;;;;;;11.07;10.17;;;14.00;37.40;;;;;;5097006;28;20461;-49
2022/11/02 08:15:22;;;;;;;11.40;10.40;;;14.00;37.10;;;;;;5115480;28;20523;-50
2022/11/02 08:17:57;;;;;;;10.90;10.10;;;14.00;37.20;;;;;;5097329;28;20973;-52
2022/11/02 08:20:23;;;;;;;11.10;10.20;;;13.90;37.40;;;;;;5094929;28;20537;-49
2022/11/02 08:22:49;;;;;;;10.80;10.10;;;14.00;37.50;;;;;;5096925;28;20424;-51
2022/11/02 08:25:15;;;;;;;10.83;10.30;;;14.00;37.50;;;;;;5096665;28;20210;-48
2022/11/02 08:27:41;;;;;;;11.30;10.60;;;14.00;37.40;;;;;;5096829;28;20170;-49
2022/11/02 08:30:07;;;;;;;10.50;9.77;;;14.00;38.00;;;;;;5079125;28;20170;-49
2022/11/02 08:32:32;;;;;;;10.27;9.67;;;14.10;37.80;;;;;;5096263;28;20923;-49
2022/11/02 08:34:58;;;;;;;10.63;10.00;;;14.00;37.50;;;;;;5089263;28;20416;-53
2022/11/02 08:37:24;;;;;;;11.83;10.57;;;14.00;37.70;;;;;;5096216;28;20186;-52
2022/11/02 08:39:49;;;;;;;10.87;10.20;;;14.00;38.00;;;;;;5096288;28;20174;-49
2022/11/02 08:42:15;;;;;;;10.33;9.50;;;14.10;37.80;;;;;;5095807;28;20197;-49
2022/11/02 08:44:41;;;;;;;10.67;10.07;;;14.10;37.50;;;;;;5096257;28;20212;-49
2022/11/02 08:47:06;;;;;;;11.77;10.97;;;14.20;37.70;;;;;;5096149;28;20199;-51
2022/11/02 08:49:32;;;;;;;11.13;10.53;;;14.30;37.40;;;;;;5096536;28;20231;-51
2022/11/02 08:51:57;;;;;;;11.50;10.77;;;14.30;37.30;;;;;;5095521;28;20174;-50
2022/11/02 08:54:23;;;;;;;11.63;10.50;;;14.40;37.30;;;;;;5095717;28;20196;-53
2022/11/02 08:56:49;;;;;;;12.30;11.43;;;14.50;37.10;;;;;;5096121;28;20224;-50
2022/11/02 08:59:14;;;;;;;11.50;10.80;;;14.60;36.70;;;;;;5095869;28;20242;-50
2022/11/02 09:01:40;;;;;;;11.20;10.37;;;14.60;36.80;;;;;;5095498;28;20190;-49
2022/11/02 09:04:06;;;;;;;10.60;9.90;;;14.70;36.80;;;;;;5095699;28;20236;-52
2022/11/02 09:06:31;;;;;;;10.40;9.90;;;14.70;36.40;;;;;;5096197;28;20253;-53
2022/11/02 09:08:57;;;;;;;10.27;9.67;;;14.80;35.70;;;;;;5095868;28;20623;-48
2022/11/02 09:11:22;;;;;;;10.27;9.57;;;14.70;35.70;;;;;;5078441;28;20595;-50
2022/11/02 09:13:48;;;;;;;10.53;10.13;;;14.80;35.70;;;;;;5095703;28;20269;-49
2022/11/02 09:16:14;;;;;;;10.07;9.50;;;14.90;35.80;;;;;;5095596;28;20177;-51
2022/11/02 09:18:39;;;;;;;9.93;9.53;;;14.80;36.10;;;;;;5095681;28;20173;-49
2022/11/02 09:21:05;;;;;;;8.93;8.63;;;14.80;36.40;;;;;;5095001;28;20185;-50
2022/11/02 09:23:32;;;;;;;11.90;9.60;;;14.90;36.40;;;;;;5095347;28;20209;-48
2022/11/02 09:26:01;;;;;;;10.10;9.50;;;14.90;35.70;;;;;;5095564;28;20806;-50
2022/11/02 09:28:27;;;;;;;10.30;9.60;;;14.90;35.80;;;;;;5095381;28;20412;-51
2022/11/02 09:30:52;;;;;;;10.67;9.77;;;14.90;35.40;;;;;;5113302;28;20419;-49
2022/11/02 09:33:18;;;;;;;10.40;9.67;;;14.90;34.70;;;;;;5095345;28;20181;-51
2022/11/02 09:35:46;;;;;;;11.00;10.37;;;14.90;35.00;;;;;;5095258;28;20315;-48
2022/11/02 09:38:12;;;;;;;10.67;9.87;;;15.00;34.90;;;;;;5095021;28;20178;-50
2022/11/02 09:40:53;;;;;;;11.80;11.10;;;15.10;33.60;;;;;;5094502;28;20415;-51
2022/11/02 09:43:38;;;;;;;11.10;9.97;;;15.10;33.40;;;;;;5094985;28;20427;-55
2022/11/02 09:46:09;;;;;;;10.20;9.50;;;14.90;33.30;;;;;;5094942;28;20428;-57
2022/11/02 09:48:45;;;;;;;10.70;9.97;;;14.90;33.90;;;;;;5094946;28;20776;-53
2022/11/02 09:51:15;;;;;;;10.27;9.87;;;14.80;32.90;;;;;;5094376;28;20415;-49
2022/11/02 09:53:47;;;;;;;9.93;9.53;;;14.80;33.20;;;;;;5094851;28;20828;-49
2022/11/02 09:56:18;;;;;;;11.20;10.50;;;14.90;33.20;;;;;;5094623;28;20974;-52
2022/11/02 09:58:47;;;;;;;9.70;9.40;;;15.00;32.40;;;;;;5094759;28;20416;-53
2022/11/02 10:01:25;;;;;;;10.80;9.77;;;15.00;31.40;;;;;;5094115;28;20510;-52
2022/11/02 10:03:57;;;;;;;9.90;9.50;;;15.10;31.40;;;;;;5094675;28;20443;-54
2022/11/02 10:06:24;;;;;;;9.97;9.47;;;15.10;30.80;;;;;;5094089;28;20546;-52
2022/11/02 10:09:26;;;;;;;10.13;9.50;;;15.10;31.50;;;;;;5094687;28;20412;-49
2022/11/02 10:12:36;;;;;;;9.43;8.93;;;15.20;30.40;;;;;;5010596;28;20434;-48
2022/11/02 10:15:10;;;;;;;9.83;9.23;;;15.20;30.00;;;;;;4993678;28;20440;-50
2022/11/02 10:17:38;;;;;;;10.73;9.90;;;15.30;30.00;;;;;;4993889;28;20424;-49
2022/11/02 10:20:23;;;;;;;11.20;9.53;;;15.50;29.30;;;;;;5051023;28;20455;-57
2022/11/02 10:22:49;;;;;;;9.87;9.40;;;15.50;29.10;;;;;;5094449;28;20472;-57
2022/11/02 10:25:15;;;;;;;8.90;8.50;;;15.70;28.80;;;;;;5094144;28;20969;-56
2022/11/02 10:27:44;;;;;;;9.70;9.13;;;15.70;28.40;;;;;;5094370;28;20181;-57
2022/11/02 10:30:17;;;;;;;10.20;9.80;;;15.70;27.40;;;;;;5093648;28;20918;-56
2022/11/02 10:32:44;;;;;;;10.70;10.00;;;15.70;27.20;;;;;;5094265;28;20415;-56
2022/11/02 10:35:31;;;;;;;10.50;9.67;;;15.70;27.80;;;;;;5093972;28;20419;-56
2022/11/02 10:38:17;;;;;;;10.27;9.77;;;15.60;27.40;;;;;;5094152;28;20416;-56
2022/11/02 10:40:52;;;;;;;9.80;9.47;;;15.60;27.50;;;;;;5093096;28;20506;-56
2022/11/02 10:43:30;;;;;;;10.40;9.60;;;15.60;28.40;;;;;;5093996;28;20435;-55
2022/11/02 10:45:55;;;;;;;9.87;8.93;;;15.60;27.00;;;;;;5094070;28;20534;-54
2022/11/02 10:48:52;;;;;;;9.13;8.63;;;15.50;27.60;;;;;;5094156;28;20431;-56
2022/11/02 10:51:18;;;;;;;9.07;8.60;;;15.60;27.60;;;;;;5091721;28;20654;-56
2022/11/02 10:53:46;;;;;;;10.97;9.40;;;15.60;27.40;;;;;;5093947;28;20416;-51
2022/11/02 10:56:16;;;;;;;10.00;9.17;;;15.60;27.60;;;;;;5093938;28;20415;-51
2022/11/02 10:59:22;;;;;;;9.07;8.67;;;15.80;27.60;;;;;;5093836;28;20424;-49
2022/11/02 11:02:01;;;;;;;10.10;9.30;;;15.80;27.10;;;;;;5093539;28;20418;-57
2022/11/02 11:04:29;;;;;;;9.40;8.90;;;15.80;27.30;;;;;;5093724;28;20516;-56
2022/11/02 11:06:55;;;;;;;9.87;9.20;;;15.90;27.20;;;;;;5111593;28;20770;-57
2022/11/02 11:09:32;;;;;;;9.70;8.90;;;15.80;27.40;;;;;;5093774;28;20416;-57
2022/11/02 11:12:26;;;;;;;9.40;8.73;;;15.70;27.10;;;;;;5093276;28;20451;-56
2022/11/02 11:14:57;;;;;;;8.47;8.10;;;15.70;27.10;;;;;;5093059;28;20423;-56
2022/11/02 11:17:31;;;;;;;12.33;8.77;;;15.70;27.40;;;;;;5096990;28;20514;-56
2022/11/02 11:19:57;;;;;;;9.00;8.60;;;15.70;27.50;;;;;;5097168;28;21097;-56
2022/11/02 11:22:28;;;;;;;9.37;8.40;;;15.70;27.70;;;;;;5097591;28;20778;-56
2022/11/02 11:25:18;;;;;;;8.80;8.30;;;15.70;27.50;;;;;;5097462;28;20511;-56
2022/11/02 11:27:46;;;;;;;9.83;9.20;;;15.70;27.10;;;;;;5097810;28;20892;-57
2022/11/02 11:30:27;;;;;;;10.03;9.53;;;15.60;27.50;;;;;;5097090;28;20528;-57
2022/11/02 11:32:54;;;;;;;9.47;8.87;;;15.80;27.60;;;;;;5097890;28;20419;-56
2022/11/02 11:35:21;;;;;;;9.50;9.17;;;16.00;27.30;;;;;;5097497;28;20514;-52
2022/11/02 11:37:53;;;;;;;8.67;8.33;;;15.90;27.20;;;;;;5097613;28;20424;-52
2022/11/02 11:40:21;;;;;;;9.80;9.13;;;15.90;26.70;;;;;;5096864;28;20415;-49
2022/11/02 11:42:51;;;;;;;8.53;8.03;;;15.90;27.20;;;;;;5097312;28;20531;-49
2022/11/02 11:45:22;;;;;;;9.23;8.73;;;16.00;26.90;;;;;;5097299;28;20459;-48
2022/11/02 11:48:08;;;;;;;9.40;9.00;;;15.90;26.50;;;;;;5097315;28;20424;-52
2022/11/02 11:50:34;;;;;;;9.33;8.70;;;15.90;26.80;;;;;;5093855;22;21000;-52
2022/11/02 11:53:12;;;;;;;10.67;9.77;;;16.00;26.60;;;;;;5046731;28;20425;-50
2022/11/02 11:55:58;;;;;;;8.60;8.30;;;15.90;26.10;;;;;;5051694;28;20260;-52
2022/11/02 11:58:29;;;;;;;15.17;8.90;;;15.90;25.90;;;;;;5054696;28;20424;-51
2022/11/02 12:01:08;;;;;;;8.70;8.40;;;16.00;25.30;;;;;;5036313;28;20411;-46
2022/11/02 12:03:59;;;;;;;8.67;8.27;;;15.90;25.60;;;;;;5053378;28;20454;-58
2022/11/02 12:06:43;;;;;;;8.63;8.00;;;16.00;25.60;;;;;;5036873;28;20743;-57
2022/11/02 12:09:44;;;;;;;9.43;8.70;;;15.90;24.60;;;;;;5062171;28;20466;-57
2022/11/02 12:12:28;;;;;;;9.00;8.40;;;15.80;24.40;;;;;;5037756;28;20415;-58
2022/11/02 12:15:08;;;;;;;8.40;7.90;;;15.70;24.30;;;;;;5038385;28;20776;-58
2022/11/02 12:17:48;;;;;;;9.07;8.67;;;15.80;24.50;;;;;;5036775;28;20948;-58
2022/11/02 12:20:33;;;;;;;9.13;8.60;;;15.70;23.70;;;;;;5036104;28;20432;-53
2022/11/02 12:23:21;;;;;;;8.97;8.50;;;15.80;23.40;;;;;;5036797;28;20419;-52
2022/11/02 12:26:07;;;;;;;8.63;8.23;;;15.70;23.50;;;;;;5036602;28;20498;-49
2022/11/02 12:28:54;;;;;;;9.40;8.70;;;15.70;23.20;;;;;;5035888;28;20445;-49
2022/11/02 12:31:30;;;;;;;8.63;8.13;;;15.90;23.00;;;;;;5036054;28;20428;-52
2022/11/02 12:33:56;;;;;;;8.33;7.90;;;16.10;22.40;;;;;;5036515;28;20785;-50
2022/11/02 12:36:27;;;;;;;8.70;8.10;;;16.30;21.80;;;;;;5036464;28;20418;-54
2022/11/02 12:39:03;;;;;;;7.80;7.40;;;16.30;21.80;;;;;;5036610;28;20180;-54
2022/11/02 12:41:53;;;;;;;8.73;7.80;;;16.40;22.10;;;;;;5035937;28;20402;-51
2022/11/02 12:44:40;;;;;;;8.30;7.90;;;16.40;21.20;;;;;;5036271;28;20466;-49
2022/11/02 12:47:31;;;;;;;8.40;7.87;;;16.40;21.00;;;;;;5036298;28;20462;-53
2022/11/02 12:50:23;;;;;;;8.93;8.17;;;16.30;20.40;;;;;;5035580;28;20434;-57
2022/11/02 12:53:38;;;;;;;8.60;8.20;;;16.20;20.30;;;;;;5036313;28;20798;-47
2022/11/02 12:56:09;;;;;;;8.33;7.93;;;16.10;20.60;;;;;;5036037;28;20522;-53
2022/11/02 12:58:37;;;;;;;9.60;8.80;;;16.10;20.30;;;;;;5036239;28;20438;-50
2022/11/02 13:01:10;;;;;;;8.07;7.67;;;16.10;20.50;;;;;;5035354;28;20528;-48
2022/11/02 13:03:51;;;;;;;8.77;8.27;;;16.20;20.90;;;;;;5035886;28;20458;-50
2022/11/02 13:06:22;;;;;;;8.03;7.63;;;16.30;20.90;;;;;;5035881;28;20433;-53
2022/11/02 13:08:59;;;;;;;8.63;8.27;;;16.40;20.80;;;;;;5036019;28;20411;-49